createdAt,value
2023-12-09T00:02:20.851Z,6.30
2023-12-09T00:04:47.568Z,6.40
2023-12-09T00:07:14.316Z,6.40
2023-12-09T00:09:41.129Z,6.50
2023-12-09T00:12:08.005Z,6.50
2023-12-09T00:14:34.804Z,6.50
2023-12-09T00:17:01.613Z,6.60
2023-12-09T00:19:28.478Z,6.60
2023-12-09T00:21:55.241Z,6.70
2023-12-09T00:24:22.070Z,6.60
2023-12-09T00:26:48.841Z,6.70
2023-12-09T00:29:15.624Z,6.70
2023-12-09T00:31:44.622Z,6.70
2023-12-09T00:34:11.515Z,6.70
2023-12-09T00:36:38.739Z,6.70
2023-12-09T00:39:06.366Z,6.70
2023-12-09T00:41:33.153Z,6.70
2023-12-09T00:43:59.800Z,6.80
2023-12-09T00:46:26.521Z,6.80
2023-12-09T00:48:53.354Z,6.80
2023-12-09T00:51:20.670Z,6.80
2023-12-09T00:53:47.420Z,6.90
2023-12-09T00:56:14.182Z,6.90
2023-12-09T00:58:41.192Z,6.90
2023-12-09T01:01:08.051Z,6.80
2023-12-09T01:03:37.158Z,6.90
2023-12-09T01:06:06.336Z,6.90
2023-12-09T01:08:33.323Z,6.90
2023-12-09T01:11:00.008Z,6.80
2023-12-09T01:13:26.703Z,6.80
2023-12-09T01:15:53.427Z,6.80
2023-12-09T01:18:22.588Z,6.80
2023-12-09T01:20:49.515Z,6.80
2023-12-09T01:23:16.250Z,6.80
2023-12-09T01:25:43.039Z,6.80
2023-12-09T01:28:11.959Z,6.80
2023-12-09T01:30:41.134Z,6.70
2023-12-09T01:33:10.403Z,6.70
2023-12-09T01:35:39.664Z,6.70
2023-12-09T01:38:06.451Z,6.80
2023-12-09T01:40:33.179Z,6.80
2023-12-09T01:42:59.966Z,6.80
2023-12-09T01:45:26.796Z,6.80
2023-12-09T01:47:54.062Z,6.90
2023-12-09T01:50:21.018Z,6.80
2023-12-09T01:52:49.960Z,6.80
2023-12-09T01:55:17.186Z,6.80
2023-12-09T01:57:44.171Z,6.80
2023-12-09T02:00:16.320Z,6.80
2023-12-09T02:02:45.502Z,6.80
2023-12-09T02:05:14.777Z,6.80
2023-12-09T02:07:43.650Z,6.80
2023-12-09T02:10:11.799Z,6.80
2023-12-09T02:12:53.528Z,6.80
2023-12-09T02:15:27.175Z,6.80
2023-12-09T02:18:03.096Z,6.90
2023-12-09T02:20:32.610Z,6.90
2023-12-09T02:23:12.228Z,6.90
2023-12-09T02:25:40.418Z,6.90
2023-12-09T02:28:10.515Z,6.90
2023-12-09T02:31:00.526Z,6.80
2023-12-09T02:33:28.810Z,6.90
2023-12-09T02:35:59.039Z,6.90
2023-12-09T02:38:29.704Z,6.90
2023-12-09T02:40:57.448Z,6.90
2023-12-09T02:43:24.093Z,6.90
2023-12-09T02:45:50.744Z,6.80
2023-12-09T02:48:17.527Z,6.80
2023-12-09T02:50:44.390Z,6.80
2023-12-09T02:53:15.307Z,6.90
2023-12-09T02:55:42.061Z,6.90
2023-12-09T02:58:08.882Z,6.90
2023-12-09T03:00:38.133Z,6.90
2023-12-09T03:03:05.128Z,6.90
2023-12-09T03:05:31.915Z,6.90
2023-12-09T03:07:58.650Z,6.90
2023-12-09T03:10:25.440Z,6.90
2023-12-09T03:12:54.407Z,6.90
2023-12-09T03:15:21.067Z,6.90
2023-12-09T03:17:47.968Z,6.90
2023-12-09T03:20:14.856Z,6.90
2023-12-09T03:22:43.671Z,6.90
2023-12-09T03:25:10.407Z,6.90
2023-12-09T03:27:37.180Z,6.90
2023-12-09T03:30:04.318Z,6.90
2023-12-09T03:32:31.370Z,6.80
2023-12-09T03:34:58.280Z,6.80
2023-12-09T03:37:24.990Z,6.80
2023-12-09T03:39:51.829Z,6.80
2023-12-09T03:42:20.801Z,6.80
2023-12-09T03:44:47.563Z,6.80
2023-12-09T03:47:21.856Z,6.80
2023-12-09T03:49:52.861Z,6.80
2023-12-09T03:52:19.680Z,6.80
2023-12-09T03:54:46.409Z,6.80
2023-12-09T03:57:14.790Z,6.80
2023-12-09T03:59:41.963Z,6.80
2023-12-09T04:02:10.904Z,6.70
2023-12-09T04:04:41.571Z,6.70
2023-12-09T04:07:08.542Z,6.70
2023-12-09T04:09:35.330Z,6.70
2023-12-09T04:12:02.102Z,6.70
2023-12-09T04:14:28.767Z,6.60
2023-12-09T04:16:57.712Z,6.60
2023-12-09T04:19:24.584Z,6.60
2023-12-09T04:21:52.958Z,6.60
2023-12-09T04:24:19.915Z,6.60
2023-12-09T04:26:46.780Z,6.50
2023-12-09T04:29:13.670Z,6.50
2023-12-09T04:31:40.594Z,6.50
2023-12-09T04:34:11.871Z,6.40
2023-12-09T04:36:38.813Z,6.40
2023-12-09T04:39:06.420Z,6.40
2023-12-09T04:41:33.156Z,6.30
2023-12-09T04:43:59.811Z,6.30
2023-12-09T04:46:26.632Z,6.30
2023-12-09T04:48:53.508Z,6.30
2023-12-09T04:51:20.847Z,6.30
2023-12-09T04:53:47.577Z,6.30
2023-12-09T04:56:14.346Z,6.30
2023-12-09T04:58:41.048Z,6.20
2023-12-09T05:01:07.793Z,6.20
2023-12-09T05:03:37.332Z,6.20
2023-12-09T05:06:05.448Z,6.20
2023-12-09T05:08:32.269Z,6.20
2023-12-09T05:11:01.143Z,6.20
2023-12-09T05:13:27.900Z,6.20
2023-12-09T05:15:54.578Z,6.20
2023-12-09T05:18:21.423Z,6.20
2023-12-09T05:20:48.324Z,6.20
2023-12-09T05:23:17.469Z,6.20
2023-12-09T05:25:44.942Z,6.20
2023-12-09T05:28:11.717Z,6.20
2023-12-09T05:30:38.432Z,6.20
2023-12-09T05:33:05.285Z,6.20
2023-12-09T05:35:32.127Z,6.20
2023-12-09T05:37:58.832Z,6.20
2023-12-09T05:40:25.556Z,6.20
2023-12-09T05:42:54.411Z,6.20
2023-12-09T05:45:21.157Z,6.20
2023-12-09T05:47:50.375Z,6.20
2023-12-09T05:50:17.207Z,6.20
2023-12-09T05:52:44.027Z,6.20
2023-12-09T05:55:10.864Z,6.20
2023-12-09T05:57:39.721Z,6.20
2023-12-09T06:00:07.361Z,6.20
2023-12-09T06:02:34.044Z,6.20
2023-12-09T06:05:00.785Z,6.20
2023-12-09T06:07:31.888Z,6.20
2023-12-09T06:10:00.824Z,6.20
2023-12-09T06:12:30.022Z,6.20
2023-12-09T06:14:56.932Z,6.20
2023-12-09T06:17:23.670Z,6.20
2023-12-09T06:19:50.512Z,6.20
2023-12-09T06:22:17.226Z,6.20
2023-12-09T06:24:47.334Z,6.20
2023-12-09T06:27:14.301Z,6.20
2023-12-09T06:29:41.002Z,6.20
2023-12-09T06:32:07.710Z,6.20
2023-12-09T06:34:34.496Z,6.20
2023-12-09T06:37:03.757Z,6.20
2023-12-09T06:39:30.606Z,6.10
2023-12-09T06:41:57.376Z,6.10
2023-12-09T06:44:26.222Z,6.10
2023-12-09T06:46:53.092Z,6.00
2023-12-09T06:49:19.974Z,6.00
2023-12-09T06:51:48.625Z,6.00
2023-12-09T06:54:15.286Z,5.90
2023-12-09T06:56:42.008Z,5.90
2023-12-09T06:59:11.460Z,5.90
2023-12-09T07:01:38.584Z,5.90
2023-12-09T07:04:10.513Z,5.90
2023-12-09T07:06:37.357Z,5.90
2023-12-09T07:09:04.136Z,5.80
2023-12-09T07:11:30.847Z,5.80
2023-12-09T07:13:57.559Z,5.80
2023-12-09T07:16:24.218Z,5.80
2023-12-09T07:19:00.092Z,5.80
2023-12-09T07:21:30.456Z,5.80
2023-12-09T07:23:57.298Z,5.90
2023-12-09T07:26:24.056Z,5.90
2023-12-09T07:28:55.738Z,5.90
2023-12-09T07:31:22.466Z,5.90
2023-12-09T07:33:49.776Z,5.90
2023-12-09T07:36:16.618Z,5.90
2023-12-09T07:38:45.652Z,5.80
2023-12-09T07:41:12.556Z,5.80
2023-12-09T07:43:41.509Z,5.90
2023-12-09T07:46:12.872Z,5.90
2023-12-09T07:48:40.694Z,5.90
2023-12-09T07:51:07.764Z,5.90
2023-12-09T07:53:34.479Z,5.90
2023-12-09T07:56:01.196Z,5.90
2023-12-09T07:58:27.914Z,5.90
2023-12-09T08:00:54.992Z,5.90
2023-12-09T08:03:21.888Z,5.90
2023-12-09T08:05:48.657Z,5.90
2023-12-09T08:08:17.663Z,5.80
2023-12-09T08:10:46.625Z,5.80
2023-12-09T08:13:15.631Z,5.80
2023-12-09T08:15:42.554Z,5.80
2023-12-09T08:18:11.616Z,5.80
2023-12-09T08:20:38.468Z,5.80
2023-12-09T08:23:05.159Z,5.80
2023-12-09T08:25:31.951Z,5.80
2023-12-09T08:27:58.991Z,5.80
2023-12-09T08:30:28.226Z,5.80
2023-12-09T08:32:57.475Z,5.80
2023-12-09T08:35:24.443Z,5.90
2023-12-09T08:37:51.202Z,5.90
2023-12-09T08:40:18.463Z,6.00
2023-12-09T08:42:48.638Z,6.10
2023-12-09T08:45:20.077Z,6.10
2023-12-09T08:47:47.103Z,6.20
2023-12-09T08:52:48.809Z,6.20
2023-12-09T08:55:16.732Z,6.30
2023-12-09T08:57:46.453Z,6.20
2023-12-09T09:00:15.146Z,6.20
2023-12-09T09:02:42.156Z,6.20
2023-12-09T09:05:09.813Z,6.20
2023-12-09T09:07:41.171Z,6.30
2023-12-09T09:10:09.361Z,6.30
2023-12-09T09:12:36.172Z,6.30
2023-12-09T09:15:06.819Z,6.30
2023-12-09T09:17:37.405Z,6.30
2023-12-09T09:20:06.786Z,6.30
2023-12-09T09:22:34.255Z,6.30
2023-12-09T09:25:01.004Z,6.30
2023-12-09T09:27:27.803Z,6.30
2023-12-09T09:29:54.745Z,6.40
2023-12-09T09:32:23.722Z,6.40
2023-12-09T09:34:50.627Z,6.40
2023-12-09T09:37:19.607Z,6.40
2023-12-09T09:39:46.444Z,6.40
2023-12-09T09:42:40.566Z,6.50
2023-12-09T09:45:09.264Z,6.50
2023-12-09T09:47:41.206Z,6.50
2023-12-09T09:50:11.931Z,6.50
2023-12-09T09:52:42.407Z,6.50
2023-12-09T09:55:10.042Z,6.50
2023-12-09T09:57:39.393Z,6.50
2023-12-09T10:00:18.046Z,6.50
2023-12-09T10:02:46.609Z,6.50
2023-12-09T10:05:17.732Z,6.50
2023-12-09T10:07:45.800Z,6.50
2023-12-09T10:10:14.687Z,6.50
2023-12-09T10:12:44.152Z,6.50
2023-12-09T10:15:15.800Z,6.50
2023-12-09T10:17:42.999Z,6.50
2023-12-09T10:20:11.716Z,6.50
2023-12-09T10:22:40.004Z,6.60
2023-12-09T10:25:09.813Z,6.60
2023-12-09T10:27:42.640Z,6.60
2023-12-09T10:30:12.433Z,6.60
2023-12-09T10:32:39.233Z,6.60
2023-12-09T10:35:06.747Z,6.60
2023-12-09T10:37:34.179Z,6.60
2023-12-09T10:40:07.554Z,6.60
2023-12-09T10:42:34.311Z,6.70
2023-12-09T10:45:05.006Z,6.70
2023-12-09T10:47:34.057Z,6.70
2023-12-09T10:50:01.946Z,6.70
2023-12-09T10:52:35.877Z,6.60
2023-12-09T10:55:06.672Z,6.60
2023-12-09T10:57:34.729Z,6.60
2023-12-09T11:00:06.355Z,6.60
2023-12-09T11:02:33.946Z,6.70
2023-12-09T11:05:03.172Z,6.70
2023-12-09T11:07:32.643Z,6.70
2023-12-09T11:10:01.586Z,6.70
2023-12-09T11:12:29.982Z,6.70
2023-12-09T11:15:01.460Z,6.70
2023-12-09T11:17:38.805Z,6.80
2023-12-09T11:20:17.080Z,6.80
2023-12-09T11:22:50.275Z,6.80
2023-12-09T11:25:27.278Z,6.80
2023-12-09T11:27:54.920Z,6.80
2023-12-09T11:30:31.564Z,6.90
2023-12-09T11:33:01.755Z,6.90
2023-12-09T11:35:29.601Z,6.90
2023-12-09T11:37:59.347Z,6.90
2023-12-09T11:40:30.059Z,6.90
2023-12-09T11:42:58.955Z,6.90
2023-12-09T11:45:27.102Z,7.00
2023-12-09T11:47:58.182Z,7.00
2023-12-09T11:50:27.600Z,7.10
2023-12-09T11:52:54.481Z,7.20
2023-12-09T11:55:21.350Z,7.40
2023-12-09T11:57:50.481Z,7.50
2023-12-09T12:00:17.755Z,7.60
2023-12-09T12:02:49.696Z,7.80
2023-12-09T12:05:16.805Z,8.00
2023-12-09T12:07:43.602Z,8.00
2023-12-09T12:10:11.408Z,8.10
2023-12-09T12:12:38.339Z,8.30
2023-12-09T12:15:06.230Z,8.40
2023-12-09T12:17:40.737Z,8.40
2023-12-09T12:20:12.632Z,8.30
2023-12-09T12:22:44.809Z,8.30
2023-12-09T12:25:14.081Z,8.30
2023-12-09T12:27:46.046Z,8.30
2023-12-09T12:30:14.584Z,8.20
2023-12-09T12:32:43.659Z,8.10
2023-12-09T12:35:13.145Z,8.10
2023-12-09T12:37:39.974Z,8.10
2023-12-09T12:40:07.790Z,8.00
2023-12-09T12:42:34.625Z,8.00
2023-12-09T12:45:04.093Z,8.10
2023-12-09T12:47:30.901Z,8.00
2023-12-09T12:49:57.726Z,8.10
2023-12-09T12:52:26.981Z,8.10
2023-12-09T12:54:53.905Z,8.10
2023-12-09T12:57:20.732Z,8.10
2023-12-09T12:59:50.053Z,8.20
2023-12-09T13:02:16.915Z,8.20
2023-12-09T13:04:47.000Z,8.20
2023-12-09T13:07:13.822Z,8.20
2023-12-09T13:09:40.820Z,8.20
2023-12-09T13:12:08.772Z,8.20
2023-12-09T13:14:35.652Z,8.20
2023-12-09T13:17:06.096Z,8.20
2023-12-09T13:19:33.016Z,8.20
2023-12-09T13:22:06.577Z,8.20
2023-12-09T13:24:33.655Z,8.20
2023-12-09T13:27:00.631Z,8.20
2023-12-09T13:29:27.604Z,8.20
2023-12-09T13:31:58.397Z,8.20
2023-12-09T13:34:28.022Z,8.20
2023-12-09T13:36:57.486Z,8.20
2023-12-09T13:39:26.989Z,8.10
2023-12-09T13:41:54.338Z,8.10
2023-12-09T13:44:21.425Z,8.10
2023-12-09T13:46:50.716Z,8.00
2023-12-09T13:49:17.666Z,8.00
2023-12-09T13:51:44.652Z,8.00
2023-12-09T13:54:11.545Z,8.00
2023-12-09T13:56:40.721Z,8.00
2023-12-09T13:59:10.501Z,8.00
2023-12-09T14:01:37.315Z,8.00
2023-12-09T14:04:09.084Z,8.00
2023-12-09T14:06:38.947Z,8.00
2023-12-09T14:09:08.678Z,8.00
2023-12-09T14:11:39.657Z,8.00
2023-12-09T14:14:07.453Z,8.00
2023-12-09T14:16:36.379Z,8.00
2023-12-09T14:19:04.425Z,7.90
2023-12-09T14:21:34.153Z,7.90
2023-12-09T14:24:01.105Z,7.90
2023-12-09T14:26:32.026Z,7.90
2023-12-09T14:29:00.296Z,7.90
2023-12-09T14:31:29.388Z,7.90
2023-12-09T14:33:56.499Z,7.90
2023-12-09T14:36:23.547Z,7.90
2023-12-09T14:38:53.371Z,7.90
2023-12-09T14:41:20.579Z,7.90
2023-12-09T14:43:49.368Z,7.90
2023-12-09T14:46:18.406Z,7.90
2023-12-09T14:48:47.607Z,7.80
2023-12-09T14:51:14.521Z,7.80
2023-12-09T14:53:41.357Z,7.80
2023-12-09T14:56:08.844Z,7.80
2023-12-09T14:58:36.787Z,7.70
2023-12-09T15:01:05.219Z,7.70
2023-12-09T15:03:32.340Z,7.70
2023-12-09T15:05:59.322Z,7.70
2023-12-09T15:08:28.508Z,7.60
2023-12-09T15:10:55.282Z,7.60
2023-12-09T15:13:22.269Z,7.60
2023-12-09T15:15:51.343Z,7.60
2023-12-09T15:18:18.317Z,7.50
2023-12-09T15:20:45.996Z,7.40
2023-12-09T15:23:15.393Z,7.40
2023-12-09T15:25:42.284Z,7.40
2023-12-09T15:28:09.289Z,7.30
2023-12-09T15:30:36.113Z,7.30
2023-12-09T15:33:05.644Z,7.30
2023-12-09T15:35:35.168Z,7.30
2023-12-09T15:38:03.229Z,7.20
2023-12-09T15:40:32.270Z,7.20
2023-12-09T15:42:59.126Z,7.20
2023-12-09T15:45:26.025Z,7.20
2023-12-09T15:47:52.894Z,7.20
2023-12-09T15:50:20.415Z,7.10
2023-12-09T15:52:47.386Z,7.10
2023-12-09T15:55:16.334Z,7.10
2023-12-09T15:57:43.854Z,7.10
2023-12-09T16:00:11.608Z,7.00
2023-12-09T16:02:43.325Z,7.00
2023-12-09T16:05:11.637Z,7.00
2023-12-09T16:07:40.963Z,7.00
2023-12-09T16:10:08.222Z,7.00
2023-12-09T16:12:35.104Z,7.10
2023-12-09T16:15:05.772Z,7.00
2023-12-09T16:17:32.743Z,7.10
2023-12-09T16:19:59.567Z,7.10
2023-12-09T16:22:26.459Z,7.00
2023-12-09T16:24:53.462Z,7.00
2023-12-09T16:27:20.276Z,7.00
2023-12-09T16:29:49.261Z,7.00
2023-12-09T16:32:16.018Z,6.90
2023-12-09T16:34:43.057Z,6.90
2023-12-09T16:37:10.310Z,7.00
2023-12-09T16:39:37.182Z,7.00
2023-12-09T16:42:04.367Z,7.00
2023-12-09T16:44:31.086Z,7.00
2023-12-09T16:46:57.938Z,7.00
2023-12-09T16:49:24.917Z,7.00
2023-12-09T16:51:51.835Z,7.00
2023-12-09T16:54:18.693Z,7.00
2023-12-09T16:56:45.612Z,6.90
2023-12-09T16:59:12.362Z,6.90
2023-12-09T17:01:39.682Z,6.90
2023-12-09T17:04:09.592Z,6.90
2023-12-09T17:06:36.856Z,6.90
2023-12-09T17:09:06.567Z,6.90
2023-12-09T17:11:33.460Z,6.90
2023-12-09T17:14:00.487Z,6.80
2023-12-09T17:16:27.271Z,6.80
2023-12-09T17:18:54.333Z,6.80
2023-12-09T17:21:21.533Z,6.80
2023-12-09T17:23:48.361Z,6.80
2023-12-09T17:26:15.391Z,6.80
2023-12-09T17:28:44.680Z,6.80
2023-12-09T17:31:11.593Z,6.90
2023-12-09T17:33:39.070Z,6.90
2023-12-09T17:36:06.349Z,6.90
2023-12-09T17:38:33.383Z,6.90
2023-12-09T17:41:00.371Z,6.90
2023-12-09T17:43:27.205Z,6.90
2023-12-09T17:45:54.931Z,6.80
2023-12-09T17:48:24.549Z,6.90
2023-12-09T17:50:54.425Z,6.90
2023-12-09T17:53:21.481Z,6.90
2023-12-09T17:55:48.362Z,6.90
2023-12-09T17:58:17.356Z,6.90
2023-12-09T18:00:44.649Z,6.90
2023-12-09T18:03:11.623Z,6.90
2023-12-09T18:05:40.632Z,6.90
2023-12-09T18:08:07.900Z,6.90
2023-12-09T18:10:34.796Z,7.00
2023-12-09T18:13:03.795Z,7.00
2023-12-09T18:15:31.725Z,7.10
2023-12-09T18:17:58.985Z,7.10
2023-12-09T18:20:25.815Z,7.10
2023-12-09T18:22:56.921Z,7.10
2023-12-09T18:25:26.808Z,7.10
2023-12-09T18:27:53.897Z,7.10
2023-12-09T18:30:21.667Z,7.10
2023-12-09T18:32:51.566Z,7.10
2023-12-09T18:35:18.991Z,7.10
2023-12-09T18:37:45.949Z,7.20
2023-12-09T18:40:13.643Z,7.20
2023-12-09T18:42:43.194Z,7.20
2023-12-09T18:45:10.818Z,7.20
2023-12-09T18:47:41.412Z,7.20
2023-12-09T18:50:09.122Z,7.20
2023-12-09T18:52:35.996Z,7.30
2023-12-09T18:55:03.195Z,7.30
2023-12-09T18:57:30.983Z,7.30
2023-12-09T18:59:57.926Z,7.30
2023-12-09T19:02:24.682Z,7.30
2023-12-09T19:04:51.732Z,7.30
2023-12-09T19:07:19.453Z,7.40
2023-12-09T19:09:48.517Z,7.40
2023-12-09T19:12:15.546Z,7.40
2023-12-09T19:14:42.857Z,7.40
2023-12-09T19:17:10.228Z,7.40
2023-12-09T19:19:37.152Z,7.40
2023-12-09T19:22:04.555Z,7.40
2023-12-09T19:24:34.073Z,7.40
2023-12-09T19:27:01.301Z,7.40
2023-12-09T19:29:28.157Z,7.40
2023-12-09T19:31:57.466Z,7.50
2023-12-09T19:34:25.202Z,7.50
2023-12-09T19:36:52.567Z,7.50
2023-12-09T19:39:24.122Z,7.50
2023-12-09T19:41:50.918Z,7.50
2023-12-09T19:44:17.782Z,7.50
2023-12-09T19:46:44.612Z,7.50
2023-12-09T19:49:11.549Z,7.60
2023-12-09T19:51:38.440Z,7.60
2023-12-09T19:54:07.839Z,7.60
2023-12-09T19:56:34.933Z,7.60
2023-12-09T19:59:02.135Z,7.60
2023-12-09T20:01:29.075Z,7.60
2023-12-09T20:03:56.143Z,7.60
2023-12-09T20:06:23.110Z,7.60
2023-12-09T20:08:49.907Z,7.60
2023-12-09T20:11:19.132Z,7.60
2023-12-09T20:13:45.982Z,7.70
2023-12-09T20:16:12.964Z,7.70
2023-12-09T20:18:39.876Z,7.70
2023-12-09T20:21:08.017Z,7.70
2023-12-09T20:23:34.982Z,7.70
2023-12-09T20:26:02.301Z,7.70
2023-12-09T20:28:29.689Z,7.70
2023-12-09T20:30:58.732Z,7.80
2023-12-09T20:33:25.813Z,7.80
2023-12-09T20:35:55.531Z,7.80
2023-12-09T20:38:22.622Z,7.80
2023-12-09T20:40:55.300Z,7.90
2023-12-09T20:43:22.417Z,7.90
2023-12-09T20:45:50.374Z,8.00
2023-12-09T20:48:20.517Z,8.00
2023-12-09T20:50:47.730Z,8.10
2023-12-09T20:53:14.622Z,8.10
2023-12-09T20:55:41.552Z,8.20
2023-12-09T20:58:08.528Z,8.40
2023-12-09T21:00:35.630Z,8.50
2023-12-09T21:03:04.310Z,8.70
2023-12-09T21:05:31.478Z,8.90
2023-12-09T21:07:58.507Z,9.00
2023-12-09T21:10:25.410Z,9.20
2023-12-09T21:12:52.615Z,9.40
2023-12-09T21:15:22.505Z,9.50
2023-12-09T21:17:49.604Z,9.80
2023-12-09T21:20:19.036Z,10.00
2023-12-09T21:22:45.866Z,10.20
2023-12-09T21:25:13.579Z,10.20
2023-12-09T21:27:43.901Z,10.20
2023-12-09T21:30:13.868Z,10.20
2023-12-09T21:32:42.748Z,10.20
2023-12-09T21:35:14.656Z,10.30
2023-12-09T21:37:44.753Z,10.40
2023-12-09T21:40:11.976Z,10.40
2023-12-09T21:42:39.187Z,10.40
2023-12-09T21:45:06.692Z,10.40
2023-12-09T21:47:35.561Z,10.40
2023-12-09T21:50:07.230Z,10.50
2023-12-09T21:52:34.051Z,10.50
2023-12-09T21:55:00.830Z,10.60
2023-12-09T21:57:28.810Z,10.60
2023-12-09T21:59:55.784Z,10.60
2023-12-09T22:02:22.590Z,10.60
2023-12-09T22:04:49.438Z,10.60
2023-12-09T22:07:16.156Z,10.60
2023-12-09T22:09:42.964Z,10.50
2023-12-09T22:12:09.864Z,10.50
2023-12-09T22:14:39.207Z,10.50
2023-12-09T22:17:06.497Z,10.50
2023-12-09T22:19:33.397Z,10.50
2023-12-09T22:22:00.484Z,10.50
2023-12-09T22:24:29.177Z,10.50
2023-12-09T22:26:56.171Z,10.50
2023-12-09T22:29:23.251Z,10.50
2023-12-09T22:31:52.146Z,10.50
2023-12-09T22:34:19.029Z,10.40
2023-12-09T22:36:46.020Z,10.40
2023-12-09T22:39:13.924Z,10.50
2023-12-09T22:41:43.036Z,10.40
2023-12-09T22:44:09.881Z,10.50
2023-12-09T22:46:36.844Z,10.50
2023-12-09T22:49:04.058Z,10.50
2023-12-09T22:51:33.185Z,10.50
2023-12-09T22:54:02.221Z,10.50
2023-12-09T22:56:31.043Z,10.50
2023-12-09T22:59:01.847Z,10.40
2023-12-09T23:01:36.090Z,10.40
2023-12-09T23:04:03.216Z,10.40
2023-12-09T23:06:32.446Z,10.30
2023-12-09T23:08:59.536Z,10.40
2023-12-09T23:11:26.656Z,10.40
2023-12-09T23:13:53.457Z,10.40
2023-12-09T23:16:20.275Z,10.40
2023-12-09T23:18:47.260Z,10.40
2023-12-09T23:21:14.298Z,10.50
2023-12-09T23:23:43.701Z,10.60
2023-12-09T23:26:10.508Z,10.60
2023-12-09T23:28:37.210Z,10.60
2023-12-09T23:31:04.189Z,10.60
2023-12-09T23:33:33.982Z,10.60
2023-12-09T23:36:00.865Z,10.60
2023-12-09T23:38:27.667Z,10.60
2023-12-09T23:40:54.419Z,10.50
2023-12-09T23:43:23.616Z,10.50
2023-12-09T23:45:50.451Z,10.40
2023-12-09T23:48:18.988Z,10.30
2023-12-09T23:50:48.892Z,10.30
2023-12-09T23:53:18.013Z,10.40
2023-12-09T23:55:44.817Z,10.40
2023-12-09T23:58:15.637Z,10.40
